Flight Track Log - Related Links

Times and Time Zones

All times are in EDT time to prevent confusion due to time zone crossing. See the FLG4057 flight status page for this flight to view local times or setup timezone preferences in your user account.

Time Position Orientation Groundspeed Altitude Reporting Facility
EDT Latitude Longitude Course Direction KTS MPH feet Rate Location/Type
Thu 11:03:42 AM 35.8583 -78.8058 82° East 163 188 1,200  Level Washington Center
Thu 11:04:55 AM 35.7931 -78.8314 198° South 235 270 3,800 2,419 Climbing Washington Center
Thu 11:05:46 AM 35.7414 -78.8061 158° South 294 338 6,200 2,595 Climbing Washington Center
Thu 11:06:46 AM 35.7125 -78.7258 114° Southeast 304 350 8,600 2,339 Climbing Washington Center
Thu 11:07:00 AM 35.9167 -78.2228 90° East  Level FlightAware Approximate
Thu 11:07:44 AM 35.7567 -78.6250 62° Northeast 291 335 10,800  Level Washington Center
Thu 11:08:00 AM 35.9333 -78.0820 90° East  Level FlightAware Approximate
Thu 11:08:45 AM 35.8136 -78.5172 57° Northeast 320 368 12,000  Level Washington Center
Thu 11:09:00 AM 35.9415 -77.9401 82° East  Level FlightAware Approximate
Thu 11:09:45 AM 35.8503 -78.3828 71° East 389 448 13,200  Level Washington Center
Thu 11:10:44 AM 35.8789 -78.2272 77° East 420 483 14,500 1,160 Climbing Washington Center
Thu 11:11:44 AM 35.9025 -78.1000 77° East 433 498 15,500 1,140 Climbing Washington Center
Thu 11:12:45 AM 35.9328 -77.9367 77° East 433 498 16,800 1,131 Climbing Washington Center
Thu 11:13:46 AM 35.9583 -77.8064 76° East 433 498 17,800 1,109 Climbing Washington Center
Thu 11:14:44 AM 36.0150 -77.6644 64° Northeast 418 481 19,000 1,160 Climbing Washington Center
Thu 11:15:45 AM 36.1103 -77.5819 35° Northeast 395 455 20,100 1,140 Climbing Washington Center
Thu 11:16:45 AM 36.2036 -77.4917 38° Northeast 403 464 21,300 1,160 Climbing Washington Center
Thu 11:17:44 AM 36.3008 -77.4039 36° Northeast 415 478 22,400 958 Climbing Washington Center
Thu 11:18:44 AM 36.3897 -77.3181 38° Northeast 415 478 23,200 793 Climbing Washington Center
Thu 11:19:45 AM 36.4786 -77.2375 36° Northeast 420 483 24,000 787 Climbing Washington Center
Thu 11:20:46 AM 36.5736 -77.1464 38° Northeast 420 483 24,800 814 Climbing Washington Center
Thu 11:21:43 AM 36.6686 -77.0575 37° Northeast 420 483 25,600 807 Climbing Washington Center
Thu 11:22:45 AM 36.7617 -76.9686 37° Northeast 420 483 26,400 683 Climbing Washington Center
Thu 11:23:46 AM 36.8583 -76.8819 36° Northeast 420 483 27,000 298 Climbing Washington Center
Thu 11:24:46 AM 36.9575 -76.7928 36° Northeast 420 483 27,000  Level Washington Center
Thu 11:25:44 AM 37.0606 -76.7006 36° Northeast 434 499 27,000  Level Washington Center
Thu 11:26:45 AM 37.1614 -76.6056 37° Northeast 446 513 27,000  Level Washington Center
Thu 11:27:46 AM 37.2769 -76.5028 35° Northeast 461 531 27,000  Level Washington Center
Thu 11:28:44 AM 37.3800 -76.4072 36° Northeast 461 531 27,000  Level Washington Center
Thu 11:29:45 AM 37.4828 -76.3142 36° Northeast 455 524 27,000  Level Washington Center
Thu 11:30:45 AM 37.5856 -76.2181 37° Northeast 455 524 27,000  Level Washington Center
Thu 11:31:45 AM 37.6797 -76.1403 33° Northeast 455 524 27,000  Level Washington Center
Thu 11:32:46 AM 37.7908 -76.0281 39° Northeast 455 524 27,000  Level Washington Center
Thu 11:33:44 AM 37.8911 -75.9339 37° Northeast 460 529 27,000  Level Washington Center
Thu 11:34:45 AM 37.9978 -75.8367 36° Northeast 460 529 27,000  Level Washington Center
Thu 11:35:45 AM 38.0981 -75.7394 37° Northeast 455 524 27,000  Level Washington Center
Thu 11:36:46 AM 38.2022 -75.6444 36° Northeast 455 524 27,000  Level Washington Center
Thu 11:37:44 AM 38.3044 -75.5494 36° Northeast 455 524 27,000  Level Washington Center
Thu 11:38:44 AM 38.4169 -75.4806 26° Northeast 453 521 27,000  Level Washington Center
Thu 11:39:45 AM 38.5378 -75.4325 17° North 441 507 27,000  Level Washington Center
Thu 11:40:45 AM 38.6589 -75.3817 18° North 446 513 27,000  Level Washington Center
Thu 11:41:45 AM 38.7775 -75.3281 19° North 446 513 27,000  Level Washington Center
Thu 11:42:46 AM 38.8814 -75.2344 35° Northeast 446 513 27,000  Level Washington Center
Thu 11:43:44 AM 38.9833 -75.1350 37° Northeast 452 520 27,000  Level Washington Center
Thu 11:44:44 AM 39.0869 -75.0328 37° Northeast 462 532 27,000  Level Washington Center
Thu 11:45:44 AM 39.1908 -74.9300 37° Northeast 462 532 27,000  Level Washington Center
Thu 11:46:45 AM 39.2944 -74.8300 37° Northeast 462 532 27,000  Level Washington Center
Thu 11:47:46 AM 39.3978 -74.7269 38° Northeast 462 532 27,000  Level Washington Center
Thu 11:48:44 AM 39.5033 -74.6206 38° Northeast 462 532 27,000  Level Washington Center
Thu 11:49:44 AM 39.6044 -74.5197 38° Northeast 462 532 27,000  Level Washington Center
Thu 11:50:44 AM 39.7119 -74.4128 37° Northeast 468 539 27,000  Level Washington Center
Thu 11:51:31 AM 39.7889 -74.3342 38° Northeast 469 540 27,000  Level New York Center
Thu 11:52:29 AM 39.8961 -74.2286 37° Northeast 461 531 27,000 -559 Level New York Center
Thu 11:53:29 AM 40.0014 -74.1200 38° Northeast 472 543 25,900 -1,000 Descending New York Center
Thu 11:54:29 AM 40.1108 -74.0086 38° Northeast 484 557 25,000 -450 Descending New York Center
Thu 11:55:29 AM 40.2181 -73.9022 37° Northeast 484 557 25,000  Level New York Center
Thu 11:56:30 AM 40.3144 -73.8033 38° Northeast 479 551 25,000  Level New York Center
Thu 11:57:30 AM 40.4169 -73.6989 38° Northeast 479 551 25,000 -773 Level New York Center
Thu 11:59:44 AM 40.6475 -73.4467 40° Northeast 469 540 22,500 -1,577 Descending Boston Center
Thu 12:00:44 PM 40.7544 -73.3442 36° Northeast 474 545 19,900 -1,950 Descending Boston Center
Thu 12:01:44 PM 40.8533 -73.2358 40° Northeast 466 536 18,600 -1,333 Descending Boston Center
Thu 12:03:00 PM 40.9547 -73.1060 44° Northeast  Level FlightAware Approximate
Thu 12:03:44 PM 41.0128 -73.0508 44° Northeast 394 453 15,900  Level Boston Center
Thu 12:04:44 PM 41.0947 -72.9525 42° Northeast 387 445 14,400 -1,554 Descending Boston Center
Thu 12:05:36 PM 41.1700 -72.8619 42° Northeast 383 441 13,000 -1,400 Descending Boston Center
Thu 12:06:44 PM 41.2517 -72.7658 41° Northeast 377 434 11,600 -984 Descending Boston Center
Thu 12:07:44 PM 41.3433 -72.7111 24° Northeast 330 380 10,900 -762 Descending Boston Center
Thu 12:08:50 PM 41.4269 -72.6753 18° North 286 329 10,000 -803 Descending Boston Center
Thu 12:09:51 PM 41.5019 -72.6425 18° North 289 333 9,200 -1,180 Descending Boston Center
Thu 12:10:52 PM 41.5811 -72.6067 19° North 293 337 7,600 -1,587 Descending Boston Center
Thu 12:11:52 PM 41.6542 -72.5789 16° North 273 314 6,000 -1,388 Descending Boston Center
Thu 12:12:53 PM 41.7292 -72.5736 North 249 287 4,800 -1,672 Descending Boston Center
Thu 12:13:54 PM 41.7958 -72.5878 351° North 253 291 2,600 -1,475 Descending Boston Center
Thu 12:14:55 PM 41.8542 -72.5961 354° North 201 231 1,800 -645 Descending Boston Center
Thu 12:15:55 PM 41.8856 -72.6269 324° Northwest 149 171 1,300 -500 Descending Boston Center

Login

Don't have an account? Register now (free) for customized features, flight alerts, and more!